createdAt,value
2017-06-09T00:00:48.505Z,18.70
2017-06-09T00:01:50.391Z,18.57
2017-06-09T00:02:52.274Z,18.58
2017-06-09T00:03:54.159Z,18.55
2017-06-09T00:04:55.954Z,18.69
2017-06-09T00:05:57.755Z,18.70
2017-06-09T00:06:59.618Z,18.75
2017-06-09T00:08:01.498Z,18.84
2017-06-09T00:09:03.351Z,18.78
2017-06-09T00:10:17.487Z,18.80
2017-06-09T00:11:19.371Z,18.73
2017-06-09T00:12:21.255Z,18.88
2017-06-09T00:13:23.137Z,18.85
2017-06-09T00:14:24.961Z,18.80
2017-06-09T00:15:26.755Z,18.85
2017-06-09T00:16:28.618Z,18.85
2017-06-09T00:17:30.480Z,18.91
2017-06-09T00:18:32.339Z,18.82
2017-06-09T00:19:46.498Z,18.90
2017-06-09T00:20:48.362Z,18.84
2017-06-09T00:21:50.222Z,18.84
2017-06-09T00:22:52.077Z,18.81
2017-06-09T00:23:53.882Z,18.87
2017-06-09T00:24:55.679Z,18.88
2017-06-09T00:25:57.543Z,18.91
2017-06-09T00:26:59.365Z,18.94
2017-06-09T00:28:01.186Z,18.85
2017-06-09T00:29:15.312Z,18.84
2017-06-09T00:30:17.175Z,18.84
2017-06-09T00:31:19.034Z,18.85
2017-06-09T00:32:20.894Z,18.85
2017-06-09T00:33:22.721Z,18.82
2017-06-09T00:34:24.541Z,18.87
2017-06-09T00:35:26.402Z,18.82
2017-06-09T00:36:28.263Z,18.80
2017-06-09T00:37:30.120Z,18.78
2017-06-09T00:38:44.256Z,18.69
2017-06-09T00:39:46.137Z,18.76
2017-06-09T00:40:47.995Z,18.67
2017-06-09T00:41:49.853Z,18.60
2017-06-09T00:42:51.653Z,18.66
2017-06-09T00:43:53.453Z,18.63
2017-06-09T00:44:55.319Z,18.60
2017-06-09T00:45:57.179Z,18.60
2017-06-09T00:46:59.045Z,18.63
2017-06-09T00:48:13.179Z,18.55
2017-06-09T00:49:15.058Z,18.60
2017-06-09T00:50:16.917Z,18.48
2017-06-09T00:51:18.778Z,18.47
2017-06-09T00:52:20.603Z,18.52
2017-06-09T00:53:22.424Z,18.52
2017-06-09T00:54:24.307Z,18.44
2017-06-09T00:55:26.168Z,18.50
2017-06-09T00:56:28.031Z,18.48
2017-06-09T00:57:42.183Z,18.52
2017-06-09T00:58:44.047Z,18.36
2017-06-09T00:59:45.904Z,18.33
2017-06-09T01:00:47.766Z,18.25
2017-06-09T01:01:49.572Z,18.30
2017-06-09T01:02:51.395Z,18.26
2017-06-09T01:03:53.254Z,18.21
2017-06-09T01:04:55.113Z,18.21
2017-06-09T01:05:56.976Z,18.25
2017-06-09T01:07:11.133Z,18.32
2017-06-09T01:08:13.032Z,18.33
2017-06-09T01:09:14.888Z,18.35
2017-06-09T01:10:16.774Z,18.36
2017-06-09T01:11:18.575Z,18.41
2017-06-09T01:12:20.401Z,18.35
2017-06-09T01:13:22.284Z,18.36
2017-06-09T01:14:24.161Z,18.35
2017-06-09T01:15:26.023Z,18.37
2017-06-09T01:16:40.172Z,18.47
2017-06-09T01:17:42.035Z,18.44
2017-06-09T01:18:43.896Z,18.41
2017-06-09T01:19:45.779Z,18.57
2017-06-09T01:20:47.604Z,18.48
2017-06-09T01:21:49.421Z,18.45
2017-06-09T01:22:51.285Z,18.48
2017-06-09T01:23:53.147Z,18.44
2017-06-09T01:24:55.012Z,18.45
2017-06-09T01:26:09.155Z,18.42
2017-06-09T01:27:11.038Z,18.42
2017-06-09T01:28:12.901Z,18.42
2017-06-09T01:29:14.786Z,18.47
2017-06-09T01:30:16.587Z,18.42
2017-06-09T01:31:18.392Z,18.44
2017-06-09T01:32:20.257Z,18.47
2017-06-09T01:33:22.119Z,18.50
2017-06-09T01:34:23.985Z,18.42
2017-06-09T01:35:38.142Z,18.47
2017-06-09T01:36:40.002Z,18.41
2017-06-09T01:37:41.869Z,18.41
2017-06-09T01:38:43.753Z,18.45
2017-06-09T01:39:45.577Z,18.45
2017-06-09T01:40:47.383Z,18.47
2017-06-09T01:41:49.265Z,18.45
2017-06-09T01:42:51.129Z,18.47
2017-06-09T01:43:53.010Z,18.42
2017-06-09T01:45:07.148Z,18.45
2017-06-09T01:46:09.011Z,18.45
2017-06-09T01:47:10.877Z,18.47
2017-06-09T01:48:12.739Z,18.45
2017-06-09T01:49:14.538Z,18.33
2017-06-09T01:50:16.341Z,18.29
2017-06-09T01:51:18.209Z,18.37
2017-06-09T01:52:20.071Z,18.21
2017-06-09T01:53:21.955Z,18.26
2017-06-09T01:54:36.100Z,18.35
2017-06-09T01:55:37.920Z,18.36
2017-06-09T01:56:39.744Z,18.29
2017-06-09T01:57:41.564Z,18.30
2017-06-09T01:58:43.430Z,18.23
2017-06-09T01:59:45.295Z,18.20
2017-06-09T02:00:47.151Z,18.23
2017-06-09T02:01:48.961Z,18.18
2017-06-09T02:02:50.780Z,18.20
2017-06-09T02:04:05.034Z,18.27
2017-06-09T02:05:06.912Z,18.18
2017-06-09T02:06:08.772Z,18.11
2017-06-09T02:07:10.643Z,18.15
2017-06-09T02:08:12.460Z,18.14
2017-06-09T02:09:14.265Z,18.15
2017-06-09T02:10:16.111Z,18.12
2017-06-09T02:11:17.940Z,18.18
2017-06-09T02:12:19.765Z,18.12
2017-06-09T02:13:33.985Z,18.07
2017-06-09T02:14:35.850Z,18.05
2017-06-09T02:15:37.714Z,18.05
2017-06-09T02:16:39.602Z,17.93
2017-06-09T02:17:41.430Z,17.96
2017-06-09T02:18:43.254Z,17.92
2017-06-09T02:19:45.135Z,17.79
2017-06-09T02:20:47.001Z,17.84
2017-06-09T02:21:48.863Z,17.79
2017-06-09T02:23:03.007Z,17.81
2017-06-09T02:24:04.890Z,17.75
2017-06-09T02:25:06.748Z,17.64
2017-06-09T02:26:08.611Z,17.63
2017-06-09T02:27:10.416Z,17.59
2017-06-09T02:28:12.243Z,17.56
2017-06-09T02:29:14.112Z,17.58
2017-06-09T02:30:15.996Z,17.59
2017-06-09T02:31:17.880Z,17.56
2017-06-09T02:32:32.020Z,17.51
2017-06-09T02:33:33.901Z,17.58
2017-06-09T02:34:35.774Z,17.54
2017-06-09T02:35:37.634Z,17.51
2017-06-09T02:36:39.443Z,17.54
2017-06-09T02:37:41.269Z,17.46
2017-06-09T02:38:43.133Z,17.49
2017-06-09T02:39:45.020Z,17.44
2017-06-09T02:40:46.904Z,17.38
2017-06-09T02:42:01.041Z,17.37
2017-06-09T02:43:02.955Z,17.34
2017-06-09T02:44:04.833Z,17.36
2017-06-09T02:45:06.696Z,17.43
2017-06-09T02:46:08.510Z,17.31
2017-06-09T02:47:10.338Z,17.40
2017-06-09T02:48:12.228Z,17.36
2017-06-09T02:49:14.091Z,17.37
2017-06-09T02:50:15.956Z,17.36
2017-06-09T02:51:30.101Z,17.38
2017-06-09T02:52:31.970Z,17.38
2017-06-09T02:53:33.827Z,17.48
2017-06-09T02:54:35.699Z,17.48
2017-06-09T02:55:37.529Z,17.51
2017-06-09T02:56:39.352Z,17.40
2017-06-09T02:57:41.214Z,17.51
2017-06-09T02:58:43.085Z,17.48
2017-06-09T02:59:44.971Z,17.51
2017-06-09T03:00:59.110Z,17.59
2017-06-09T03:02:00.977Z,17.59
2017-06-09T03:03:02.869Z,17.70
2017-06-09T03:04:04.734Z,17.66
2017-06-09T03:05:06.562Z,17.86
2017-06-09T03:06:08.364Z,17.92
2017-06-09T03:07:10.230Z,17.95
2017-06-09T03:08:12.091Z,18.14
2017-06-09T03:09:13.964Z,18.26
2017-06-09T03:10:28.111Z,18.37
2017-06-09T03:11:29.995Z,18.58
2017-06-09T03:12:31.860Z,18.75
2017-06-09T03:13:33.730Z,18.85
2017-06-09T03:14:35.557Z,19.04
2017-06-09T03:15:37.364Z,19.26
2017-06-09T03:16:39.233Z,19.43
2017-06-09T03:17:41.101Z,19.63
2017-06-09T03:18:42.966Z,19.77
2017-06-09T03:19:57.109Z,19.98
2017-06-09T03:20:58.978Z,20.20
2017-06-09T03:22:00.845Z,20.38
2017-06-09T03:23:02.744Z,20.58
2017-06-09T03:24:04.561Z,20.80
2017-06-09T03:25:06.369Z,20.98
2017-06-09T03:26:08.241Z,21.14
2017-06-09T03:27:10.261Z,21.38
2017-06-09T03:28:12.136Z,21.53
2017-06-09T03:29:26.300Z,21.65
2017-06-09T03:30:28.169Z,21.82
2017-06-09T03:31:30.043Z,21.94
2017-06-09T03:32:31.931Z,22.07
2017-06-09T03:33:33.761Z,22.24
2017-06-09T03:34:35.571Z,22.36
2017-06-09T03:35:37.467Z,22.52
2017-06-09T03:36:39.361Z,22.76
2017-06-09T03:37:41.252Z,22.86
2017-06-09T03:38:55.392Z,23.05
2017-06-09T03:39:57.262Z,23.31
2017-06-09T03:40:59.136Z,23.57
2017-06-09T03:42:01.026Z,23.60
2017-06-09T03:43:02.837Z,23.76
2017-06-09T03:44:04.670Z,24.02
2017-06-09T03:45:06.540Z,24.24
2017-06-09T03:46:08.413Z,24.40
2017-06-09T03:47:10.305Z,24.55
2017-06-09T03:48:24.607Z,24.77
2017-06-09T03:49:26.499Z,24.93
2017-06-09T03:50:28.393Z,25.03
2017-06-09T03:51:30.262Z,25.28
2017-06-09T03:52:32.075Z,25.40
2017-06-09T03:53:33.893Z,25.47
2017-06-09T03:54:35.787Z,25.73
2017-06-09T03:55:37.658Z,25.88
2017-06-09T03:56:39.532Z,26.06
2017-06-09T03:57:53.685Z,26.43
2017-06-09T03:58:55.615Z,26.72
2017-06-09T03:59:57.464Z,26.82
2017-06-09T04:00:59.335Z,27.12
2017-06-09T04:02:01.153Z,27.24
2017-06-09T04:03:02.990Z,27.46
2017-06-09T04:04:04.870Z,27.75
2017-06-09T04:05:06.764Z,27.81
2017-06-09T04:06:08.635Z,27.99
2017-06-09T04:07:22.784Z,28.11
2017-06-09T04:08:24.659Z,28.25
2017-06-09T04:09:26.530Z,28.43
2017-06-09T04:10:28.408Z,28.56
2017-06-09T04:11:30.246Z,28.83
2017-06-09T04:12:32.073Z,28.77
2017-06-09T04:13:33.949Z,28.98
2017-06-09T04:14:35.824Z,29.18
2017-06-09T04:15:37.704Z,29.30
2017-06-09T04:16:51.876Z,29.31
2017-06-09T04:17:53.772Z,29.48
2017-06-09T04:18:55.648Z,29.61
2017-06-09T04:19:57.545Z,29.61
2017-06-09T04:20:59.365Z,29.74
2017-06-09T04:22:01.200Z,29.70
2017-06-09T04:23:03.081Z,29.83
2017-06-09T04:24:04.959Z,30.01
2017-06-09T04:25:06.862Z,30.07
2017-06-09T04:26:21.042Z,30.13
2017-06-09T04:27:22.934Z,30.19
2017-06-09T04:28:24.811Z,30.27
2017-06-09T04:29:26.679Z,30.26
2017-06-09T04:30:28.497Z,30.24
2017-06-09T04:31:30.309Z,30.10
2017-06-09T04:32:32.195Z,29.87
2017-06-09T04:33:34.069Z,29.57
2017-06-09T04:34:35.945Z,29.43
2017-06-09T04:35:50.097Z,29.34
2017-06-09T04:36:51.975Z,29.27
2017-06-09T04:37:53.850Z,29.09
2017-06-09T04:38:55.731Z,28.96
2017-06-09T04:39:57.569Z,28.81
2017-06-09T04:40:59.388Z,28.66
2017-06-09T04:42:01.269Z,28.41
2017-06-09T04:43:03.148Z,28.27
2017-06-09T04:44:05.053Z,28.36
2017-06-09T04:45:19.226Z,28.61
2017-06-09T04:46:21.118Z,28.71
2017-06-09T04:47:22.996Z,28.80
2017-06-09T04:48:24.887Z,28.98
2017-06-09T04:49:26.720Z,29.30
2017-06-09T04:50:28.561Z,29.67
2017-06-09T04:51:30.442Z,29.87
2017-06-09T04:52:32.340Z,30.16
2017-06-09T04:53:34.217Z,30.49
2017-06-09T04:54:48.376Z,30.67
2017-06-09T04:55:50.250Z,30.89
2017-06-09T04:56:52.153Z,31.04
2017-06-09T04:57:54.053Z,31.16
2017-06-09T04:58:55.892Z,31.29
2017-06-09T04:59:57.709Z,31.44
2017-06-09T05:00:59.588Z,31.53
2017-06-09T05:02:01.463Z,31.58
2017-06-09T05:03:03.343Z,31.54
2017-06-09T05:04:17.499Z,31.61
2017-06-09T05:05:19.378Z,31.72
2017-06-09T05:06:21.277Z,31.73
2017-06-09T05:07:23.161Z,31.63
2017-06-09T05:08:24.997Z,31.34
2017-06-09T05:09:26.817Z,31.25
2017-06-09T05:10:28.693Z,31.26
2017-06-09T05:11:30.570Z,31.21
2017-06-09T05:12:32.472Z,31.16
2017-06-09T05:13:46.646Z,31.19
2017-06-09T05:14:48.551Z,31.31
2017-06-09T05:15:50.440Z,31.38
2017-06-09T05:16:52.335Z,31.29
2017-06-09T05:17:54.154Z,31.35
2017-06-09T05:18:55.975Z,31.25
2017-06-09T05:19:57.870Z,30.98
2017-06-09T05:20:59.748Z,30.91
2017-06-09T05:22:01.629Z,30.88
2017-06-09T05:23:15.802Z,30.67
2017-06-09T05:24:17.674Z,30.60
2017-06-09T05:25:19.565Z,30.54
2017-06-09T05:26:21.450Z,30.37
2017-06-09T05:27:23.257Z,30.07
2017-06-09T05:28:25.068Z,29.82
2017-06-09T05:29:26.946Z,29.86
2017-06-09T05:30:28.821Z,29.74
2017-06-09T05:31:30.694Z,29.63
2017-06-09T05:32:44.849Z,29.34
2017-06-09T05:33:46.741Z,29.16
2017-06-09T05:34:48.619Z,28.90
2017-06-09T05:35:50.490Z,28.25
2017-06-09T05:36:52.302Z,28.00
2017-06-09T05:37:54.115Z,27.72
2017-06-09T05:38:55.992Z,27.57
2017-06-09T05:39:57.860Z,27.32
2017-06-09T05:40:59.737Z,26.92
2017-06-09T05:42:13.902Z,26.67
2017-06-09T05:43:15.774Z,26.32
2017-06-09T05:44:17.645Z,26.12
2017-06-09T05:45:19.516Z,25.91
2017-06-09T05:46:21.328Z,25.91
2017-06-09T05:47:23.139Z,25.91
2017-06-09T05:48:25.013Z,25.97
2017-06-09T05:49:27.030Z,25.92
2017-06-09T05:50:28.907Z,25.91
2017-06-09T05:51:43.073Z,25.69
2017-06-09T05:52:44.942Z,25.57
2017-06-09T05:53:46.816Z,25.45
2017-06-09T05:54:48.706Z,25.21
2017-06-09T05:55:50.520Z,25.06
2017-06-09T05:56:52.334Z,24.95
2017-06-09T05:57:54.230Z,24.93
2017-06-09T05:58:56.124Z,24.81
2017-06-09T05:59:57.990Z,24.69
2017-06-09T06:01:12.143Z,24.52
2017-06-09T06:02:14.029Z,24.27
2017-06-09T06:03:15.905Z,24.31
2017-06-09T06:04:17.798Z,24.22
2017-06-09T06:05:19.635Z,24.24
2017-06-09T06:06:21.444Z,24.24
2017-06-09T06:07:23.318Z,24.21
2017-06-09T06:08:25.208Z,24.13
2017-06-09T06:09:27.077Z,24.18
2017-06-09T06:10:41.230Z,24.21
2017-06-09T06:11:43.125Z,24.16
2017-06-09T06:12:45.016Z,24.05
2017-06-09T06:13:46.885Z,24.10
2017-06-09T06:14:48.700Z,24.06
2017-06-09T06:15:50.510Z,24.13
2017-06-09T06:16:52.400Z,24.16
2017-06-09T06:17:54.270Z,24.15
2017-06-09T06:18:56.139Z,24.20
2017-06-09T06:20:10.285Z,24.18
2017-06-09T06:21:12.165Z,24.13
2017-06-09T06:22:14.044Z,24.15
2017-06-09T06:23:15.919Z,24.08
2017-06-09T06:24:17.748Z,24.10
2017-06-09T06:25:19.561Z,24.18
2017-06-09T06:26:21.454Z,24.12
2017-06-09T06:27:23.349Z,24.13
2017-06-09T06:28:25.218Z,24.21
2017-06-09T06:29:39.364Z,24.21
2017-06-09T06:30:41.238Z,24.15
2017-06-09T06:31:43.108Z,24.12
2017-06-09T06:32:45.027Z,24.13
2017-06-09T06:33:46.825Z,24.12
2017-06-09T06:34:48.633Z,24.15
2017-06-09T06:35:50.506Z,24.22
2017-06-09T06:36:52.380Z,24.21
2017-06-09T06:37:54.270Z,24.16
2017-06-09T06:39:08.419Z,24.35
2017-06-09T06:40:10.296Z,24.31
2017-06-09T06:41:12.183Z,24.32
2017-06-09T06:42:14.055Z,24.35
2017-06-09T06:43:15.887Z,24.40
2017-06-09T06:44:17.720Z,24.35
2017-06-09T06:45:19.593Z,24.39
2017-06-09T06:46:21.486Z,24.43
2017-06-09T06:47:23.377Z,24.46
2017-06-09T06:48:37.544Z,24.57
2017-06-09T06:49:39.420Z,24.61
2017-06-09T06:50:41.309Z,24.55
2017-06-09T06:51:43.202Z,24.60
2017-06-09T06:52:45.017Z,24.57
2017-06-09T06:53:46.853Z,24.62
2017-06-09T06:54:48.746Z,24.55
2017-06-09T06:55:50.639Z,24.57
2017-06-09T06:56:52.535Z,24.68
2017-06-09T06:58:06.679Z,24.71
2017-06-09T06:59:08.550Z,24.78
2017-06-09T07:00:10.423Z,24.85
2017-06-09T07:01:12.308Z,24.88
2017-06-09T07:02:14.124Z,24.85
2017-06-09T07:03:15.939Z,24.91
2017-06-09T07:04:17.832Z,24.91
2017-06-09T07:05:19.724Z,25.08
2017-06-09T07:06:21.617Z,25.02
2017-06-09T07:07:35.763Z,25.08
2017-06-09T07:08:37.636Z,25.18
2017-06-09T07:09:39.507Z,25.28
2017-06-09T07:10:41.401Z,25.18
2017-06-09T07:11:43.235Z,25.10
2017-06-09T07:12:45.069Z,25.13
2017-06-09T07:13:46.937Z,25.21
2017-06-09T07:14:48.813Z,25.28
2017-06-09T07:15:50.684Z,25.20
2017-06-09T07:17:04.832Z,25.28
2017-06-09T07:18:06.699Z,25.38
2017-06-09T07:19:08.566Z,25.35
2017-06-09T07:20:10.438Z,25.47
2017-06-09T07:21:12.251Z,25.45
2017-06-09T07:22:14.088Z,25.50
2017-06-09T07:23:15.957Z,25.50
2017-06-09T07:24:17.825Z,25.54
2017-06-09T07:25:19.701Z,25.58
2017-06-09T07:26:33.849Z,25.61
2017-06-09T07:27:35.727Z,25.60
2017-06-09T07:28:37.614Z,25.70
2017-06-09T07:29:39.506Z,25.61
2017-06-09T07:30:41.318Z,25.65
2017-06-09T07:31:43.155Z,25.70
2017-06-09T07:32:45.025Z,25.64
2017-06-09T07:33:46.895Z,25.73
2017-06-09T07:34:48.764Z,25.65
2017-06-09T07:36:02.910Z,25.61
2017-06-09T07:37:04.783Z,25.72
2017-06-09T07:38:06.655Z,25.65
2017-06-09T07:39:08.543Z,25.72
2017-06-09T07:40:10.357Z,25.77
2017-06-09T07:41:12.177Z,25.73
2017-06-09T07:42:14.045Z,25.73
2017-06-09T07:43:15.941Z,25.72
2017-06-09T07:44:17.834Z,25.64
2017-06-09T07:45:32.009Z,25.54
2017-06-09T07:46:33.889Z,25.47
2017-06-09T07:47:35.762Z,25.42
2017-06-09T07:48:37.649Z,25.57
2017-06-09T07:49:39.468Z,25.46
2017-06-09T07:50:41.300Z,25.50
2017-06-09T07:51:43.175Z,25.45
2017-06-09T07:52:45.068Z,25.40
2017-06-09T07:53:46.981Z,25.47
2017-06-09T07:55:01.104Z,25.43
2017-06-09T07:56:02.971Z,25.43
2017-06-09T07:57:04.843Z,25.39
2017-06-09T07:58:06.710Z,25.45
2017-06-09T07:59:08.520Z,25.47
2017-06-09T08:00:10.358Z,25.38
2017-06-09T08:01:12.228Z,25.33
2017-06-09T08:02:14.103Z,25.45
2017-06-09T08:03:15.976Z,25.45
2017-06-09T08:04:30.117Z,25.43
2017-06-09T08:05:32.001Z,25.47
2017-06-09T08:06:33.882Z,25.52
2017-06-09T08:07:35.755Z,25.47
2017-06-09T08:08:37.575Z,25.50
2017-06-09T08:09:39.400Z,25.40
2017-06-09T08:10:41.272Z,25.35
2017-06-09T08:11:43.142Z,25.38
2017-06-09T08:12:45.019Z,25.35
2017-06-09T08:13:59.189Z,25.43
2017-06-09T08:15:01.063Z,25.43
2017-06-09T08:16:02.951Z,25.47
2017-06-09T08:17:04.820Z,25.54
2017-06-09T08:18:06.634Z,25.43
2017-06-09T08:19:08.445Z,25.42
2017-06-09T08:20:10.316Z,25.43
2017-06-09T08:21:12.190Z,25.46
2017-06-09T08:22:14.082Z,25.45
2017-06-09T08:23:28.231Z,25.51
2017-06-09T08:24:30.106Z,25.51
2017-06-09T08:25:32.002Z,25.62
2017-06-09T08:26:33.891Z,25.62
2017-06-09T08:27:35.701Z,25.72
2017-06-09T08:28:37.516Z,25.72
2017-06-09T08:29:39.392Z,25.65
2017-06-09T08:30:41.284Z,25.69
2017-06-09T08:31:43.152Z,25.61
2017-06-09T08:32:57.302Z,25.45
2017-06-09T08:33:59.196Z,25.38
2017-06-09T08:35:01.085Z,25.38
2017-06-09T08:36:02.958Z,25.18
2017-06-09T08:37:04.798Z,25.30
2017-06-09T08:38:06.627Z,25.28
2017-06-09T08:39:08.518Z,25.33
2017-06-09T08:40:10.388Z,25.32
2017-06-09T08:41:12.262Z,25.35
2017-06-09T08:42:26.438Z,25.39
2017-06-09T08:43:28.327Z,25.35
2017-06-09T08:44:30.197Z,25.43
2017-06-09T08:45:32.064Z,25.39
2017-06-09T08:46:33.882Z,25.35
2017-06-09T08:47:35.695Z,25.42
2017-06-09T08:48:37.564Z,25.43
2017-06-09T08:49:39.434Z,25.39
2017-06-09T08:50:41.308Z,25.40
2017-06-09T08:51:55.452Z,25.33
2017-06-09T08:52:57.345Z,25.24
2017-06-09T08:53:59.214Z,25.27
2017-06-09T08:55:01.107Z,25.27
2017-06-09T08:56:02.946Z,25.14
2017-06-09T08:57:04.775Z,25.13
2017-06-09T08:58:06.679Z,25.08
2017-06-09T08:59:08.527Z,25.10
2017-06-09T09:00:10.400Z,25.10
2017-06-09T09:01:24.572Z,25.30
2017-06-09T09:02:26.438Z,25.40
2017-06-09T09:03:28.309Z,25.42
2017-06-09T09:04:30.184Z,25.54
2017-06-09T09:05:31.990Z,25.61
2017-06-09T09:06:33.810Z,25.73
2017-06-09T09:07:35.682Z,25.73
2017-06-09T09:08:37.572Z,25.82
2017-06-09T09:09:39.444Z,25.85
2017-06-09T09:10:53.597Z,25.85
2017-06-09T09:11:55.488Z,25.88
2017-06-09T09:12:57.384Z,25.91
2017-06-09T09:13:59.272Z,25.94
2017-06-09T09:15:01.081Z,25.90
2017-06-09T09:16:02.892Z,26.07
2017-06-09T09:17:04.767Z,25.92
2017-06-09T09:18:06.641Z,25.98
2017-06-09T09:19:08.531Z,25.95
2017-06-09T09:20:22.680Z,25.85
2017-06-09T09:21:24.546Z,25.83
2017-06-09T09:22:26.417Z,25.87
2017-06-09T09:23:28.291Z,25.90
2017-06-09T09:24:30.124Z,25.90
2017-06-09T09:25:31.938Z,25.97
2017-06-09T09:26:33.809Z,25.91
2017-06-09T09:27:35.685Z,25.87
2017-06-09T09:28:37.553Z,25.87
2017-06-09T09:29:51.705Z,26.01
2017-06-09T09:30:53.593Z,26.02
2017-06-09T09:31:55.467Z,25.95
2017-06-09T09:32:57.342Z,25.92
2017-06-09T09:33:59.178Z,25.95
2017-06-09T09:35:00.992Z,26.05
2017-06-09T09:36:02.866Z,26.02
2017-06-09T09:37:04.758Z,26.10
2017-06-09T09:38:06.650Z,26.20
2017-06-09T09:39:20.803Z,26.25
2017-06-09T09:40:22.676Z,26.30
2017-06-09T09:41:24.542Z,26.36
2017-06-09T09:42:26.418Z,26.45
2017-06-09T09:43:28.254Z,26.50
2017-06-09T09:44:30.082Z,26.63
2017-06-09T09:45:31.957Z,26.65
2017-06-09T09:46:33.862Z,26.70
2017-06-09T09:47:35.749Z,26.85
2017-06-09T09:48:49.900Z,26.91
2017-06-09T09:49:51.792Z,26.91
2017-06-09T09:50:53.666Z,27.02
2017-06-09T09:51:55.537Z,27.02
2017-06-09T09:52:57.366Z,26.91
2017-06-09T09:53:59.181Z,26.95
2017-06-09T09:55:01.079Z,26.82
2017-06-09T09:56:02.976Z,26.82
2017-06-09T09:57:04.870Z,26.81
2017-06-09T09:58:19.016Z,26.87
2017-06-09T09:59:20.897Z,26.77
2017-06-09T10:00:22.786Z,26.84
2017-06-09T10:01:24.678Z,26.87
2017-06-09T10:02:26.514Z,26.94
2017-06-09T10:03:28.345Z,26.88
2017-06-09T10:04:30.221Z,26.97
2017-06-09T10:05:32.117Z,26.99
2017-06-09T10:06:34.014Z,26.94
2017-06-09T10:07:48.186Z,26.94
2017-06-09T10:08:50.082Z,26.92
2017-06-09T10:09:51.972Z,26.92
2017-06-09T10:10:53.845Z,26.94
2017-06-09T10:11:55.663Z,26.94
2017-06-09T10:12:57.495Z,26.89
2017-06-09T10:13:59.370Z,26.84
2017-06-09T10:15:01.267Z,26.80
2017-06-09T10:16:03.157Z,26.80
2017-06-09T10:17:17.308Z,26.73
2017-06-09T10:18:19.198Z,26.81
2017-06-09T10:19:21.073Z,26.72
2017-06-09T10:20:22.972Z,26.77
2017-06-09T10:21:24.805Z,26.88
2017-06-09T10:22:26.784Z,26.85
2017-06-09T10:23:28.661Z,26.81
2017-06-09T10:24:30.532Z,26.76
2017-06-09T10:25:32.403Z,26.84
2017-06-09T10:26:46.553Z,26.84
2017-06-09T10:27:48.424Z,26.82
2017-06-09T10:28:50.294Z,26.82
2017-06-09T10:29:52.167Z,26.76
2017-06-09T10:30:54.003Z,26.80
2017-06-09T10:31:55.834Z,26.75
2017-06-09T10:32:57.715Z,26.72
2017-06-09T10:33:59.606Z,26.77
2017-06-09T10:35:01.479Z,26.66
2017-06-09T10:36:15.647Z,26.63
2017-06-09T10:37:17.521Z,26.67
2017-06-09T10:38:19.394Z,26.72
2017-06-09T10:39:21.288Z,26.65
2017-06-09T10:40:23.121Z,26.66
2017-06-09T10:41:24.940Z,26.60
2017-06-09T10:42:26.830Z,26.63
2017-06-09T10:43:28.703Z,26.66
2017-06-09T10:44:30.573Z,26.60
2017-06-09T10:45:44.768Z,26.65
2017-06-09T10:46:46.644Z,26.60
2017-06-09T10:47:48.537Z,26.60
2017-06-09T10:48:50.407Z,26.62
2017-06-09T10:49:52.227Z,26.69
2017-06-09T10:50:54.065Z,26.70
2017-06-09T10:51:55.955Z,26.80
2017-06-09T10:52:57.848Z,26.82
2017-06-09T10:53:59.725Z,26.76
2017-06-09T10:55:13.870Z,26.85
2017-06-09T10:56:15.743Z,26.85
2017-06-09T10:57:17.635Z,26.94
2017-06-09T10:58:19.528Z,26.82
2017-06-09T10:59:21.335Z,26.84
2017-06-09T11:00:23.146Z,26.80
2017-06-09T11:01:25.020Z,26.91
2017-06-09T11:02:26.917Z,26.91
2017-06-09T11:03:28.815Z,26.88
2017-06-09T11:04:42.981Z,26.89
2017-06-09T11:05:44.856Z,26.89
2017-06-09T11:07:16.398Z,26.82
2017-06-09T11:08:18.287Z,26.84
2017-06-09T11:09:20.099Z,26.88
2017-06-09T11:10:21.912Z,26.87
2017-06-09T11:11:23.786Z,26.94
2017-06-09T11:12:25.679Z,26.87
2017-06-09T11:13:27.565Z,26.89
2017-06-09T11:14:41.756Z,27.00
2017-06-09T11:15:43.627Z,26.95
2017-06-09T11:16:45.513Z,27.02
2017-06-09T11:17:47.385Z,26.99
2017-06-09T11:18:49.197Z,27.03
2017-06-09T11:19:51.023Z,26.97
2017-06-09T11:20:52.888Z,26.99
2017-06-09T11:21:54.764Z,27.03
2017-06-09T11:22:56.633Z,26.99
2017-06-09T11:24:10.796Z,26.99
2017-06-09T11:25:12.664Z,27.14
2017-06-09T11:26:14.539Z,27.14
2017-06-09T11:27:16.422Z,27.09
2017-06-09T11:28:18.233Z,27.14
2017-06-09T11:29:20.044Z,27.17
2017-06-09T11:30:21.912Z,27.24
2017-06-09T11:31:23.809Z,27.28
2017-06-09T11:32:25.697Z,27.22
2017-06-09T11:33:39.888Z,27.25
2017-06-09T11:34:41.755Z,27.31
2017-06-09T11:35:43.628Z,27.34
2017-06-09T11:36:45.518Z,27.31
2017-06-09T11:37:47.349Z,27.32
2017-06-09T11:38:49.179Z,27.32
2017-06-09T11:39:51.069Z,27.37
2017-06-09T11:40:52.962Z,27.31
2017-06-09T11:41:54.854Z,27.34
2017-06-09T11:43:09.065Z,27.36
2017-06-09T11:44:10.955Z,27.39
2017-06-09T11:45:12.819Z,27.51
2017-06-09T11:46:14.682Z,27.49
2017-06-09T11:47:16.508Z,27.57
2017-06-09T11:48:18.339Z,27.51
2017-06-09T11:49:20.228Z,27.62
2017-06-09T11:50:22.100Z,27.60
2017-06-09T11:51:23.977Z,27.69
2017-06-09T11:52:38.140Z,27.69
2017-06-09T11:53:40.030Z,27.72
2017-06-09T11:54:41.898Z,27.70
2017-06-09T11:55:43.762Z,27.75
2017-06-09T11:56:45.572Z,27.81
2017-06-09T11:57:47.389Z,27.74
2017-06-09T11:58:49.287Z,27.78
2017-06-09T11:59:51.200Z,27.82
2017-06-09T12:00:53.099Z,27.88
2017-06-09T12:02:07.376Z,27.87
2017-06-09T12:03:09.268Z,27.87
2017-06-09T12:04:11.160Z,27.85
2017-06-09T12:05:13.081Z,27.92
2017-06-09T12:06:14.947Z,28.00
2017-06-09T12:07:16.784Z,28.06
2017-06-09T12:08:18.668Z,28.09
2017-06-09T12:09:20.566Z,28.24
2017-06-09T12:10:22.475Z,28.24
2017-06-09T12:11:36.700Z,28.17
2017-06-09T12:12:38.581Z,28.31
2017-06-09T12:13:40.512Z,28.24
2017-06-09T12:14:42.399Z,28.30
2017-06-09T12:15:44.247Z,28.36
2017-06-09T12:16:46.058Z,28.39
2017-06-09T12:17:47.953Z,28.33
2017-06-09T12:18:49.847Z,28.39
2017-06-09T12:19:51.747Z,28.46
2017-06-09T12:21:06.011Z,28.61
2017-06-09T12:22:07.923Z,28.66
2017-06-09T12:23:09.831Z,28.74
2017-06-09T12:24:11.734Z,28.83
2017-06-09T12:25:13.575Z,28.89
2017-06-09T12:26:15.394Z,28.98
2017-06-09T12:27:17.290Z,29.09
2017-06-09T12:28:19.185Z,29.06
2017-06-09T12:29:21.058Z,29.08
2017-06-09T12:30:35.227Z,29.11
2017-06-09T12:31:37.100Z,29.15
2017-06-09T12:32:38.992Z,29.28
2017-06-09T12:33:40.887Z,29.27
2017-06-09T12:34:42.722Z,29.31
2017-06-09T12:35:44.530Z,29.28
2017-06-09T12:36:46.404Z,29.27
2017-06-09T12:37:48.294Z,29.19
2017-06-09T12:38:50.162Z,29.14
2017-06-09T12:40:04.309Z,29.23
2017-06-09T12:41:06.183Z,29.23
2017-06-09T12:42:08.072Z,29.16
2017-06-09T12:43:09.947Z,29.24
2017-06-09T12:44:11.781Z,29.27
2017-06-09T12:45:13.615Z,29.27
2017-06-09T12:46:15.505Z,29.12
2017-06-09T12:47:17.374Z,29.16
2017-06-09T12:48:19.249Z,29.08
2017-06-09T12:49:33.418Z,28.96
2017-06-09T12:50:35.310Z,28.80
2017-06-09T12:51:37.204Z,28.92
2017-06-09T12:52:39.099Z,28.85
2017-06-09T12:53:40.929Z,28.76
2017-06-09T12:54:42.744Z,28.74
2017-06-09T12:55:44.630Z,28.71
2017-06-09T12:56:46.503Z,28.70
2017-06-09T12:57:48.377Z,28.62
2017-06-09T12:59:02.524Z,28.54
2017-06-09T13:00:04.420Z,28.49
2017-06-09T13:01:06.308Z,28.52
2017-06-09T13:02:08.174Z,28.43
2017-06-09T13:03:09.988Z,28.40
2017-06-09T13:04:11.801Z,28.34
2017-06-09T13:05:13.669Z,28.27
2017-06-09T13:06:15.538Z,28.19
2017-06-09T13:07:17.411Z,28.19
2017-06-09T13:08:31.574Z,28.07
2017-06-09T13:09:33.445Z,28.00
2017-06-09T13:10:35.321Z,27.99
2017-06-09T13:11:37.212Z,27.99
2017-06-09T13:12:39.018Z,27.96
2017-06-09T13:13:40.853Z,27.92
2017-06-09T13:14:42.737Z,27.94
2017-06-09T13:15:44.684Z,27.87
2017-06-09T13:16:46.894Z,27.84
2017-06-09T13:18:01.101Z,28.02
2017-06-09T13:19:02.996Z,27.97
2017-06-09T13:20:04.888Z,27.92
2017-06-09T13:21:06.774Z,27.92
2017-06-09T13:22:08.589Z,27.84
2017-06-09T13:23:10.423Z,27.87
2017-06-09T13:24:12.311Z,27.81
2017-06-09T13:25:14.185Z,27.81
2017-06-09T13:26:16.076Z,27.78
2017-06-09T13:27:30.240Z,27.77
2017-06-09T13:28:32.114Z,27.77
2017-06-09T13:29:34.004Z,27.77
2017-06-09T13:30:35.871Z,27.74
2017-06-09T13:31:37.684Z,27.67
2017-06-09T13:32:39.513Z,27.70
2017-06-09T13:33:41.384Z,27.63
2017-06-09T13:34:43.276Z,27.66